Home   Weather   USA   Dunn   Past weeks
Flag for USA

Past Weather in Dunn, North Carolina, USA — Yesterday and Last 2 Weeks

Currently: 82 °F. Sunny. (Weather station: Harnett County Airport, USA). See more current weather

Past Weather in Dunn — Graph

°F

Dunn Temperature Yesterday

Maximum temperature yesterday: 92 °F (at 4:15 pm)
Minimum temperature yesterday: 71 °F (at 5:15 am)
Average temperature yesterday: 80 °F

High & Low Weather Summary for the Past Weeks

 TemperatureHumidityPressure
High92 °F (May 19, 4:15 pm)100% (May 15, 1:15 am)30.24 "Hg (May 15, 1:15 am)
Low44 °F (May 9, 6:35 am)25% (May 9, 5:15 pm)29.54 "Hg (May 7, 2:15 pm)
Average68 °F71%29.97 "Hg
* Reported May 5 9:35 am — May 20 9:35 am, Dunn. Weather by CustomWeather, © 2022

Note: Actual official high and low records may vary slightly from our data, if they occured in-between our weather recording intervals... More about our weather records

Dunn Weather History for the Previous 24 Hours

Scroll right to see more
 ConditionsComfort  
Time TempWeatherWind HumidityBarometerVisibility
9:35 am
Fri, May 20
82 °FSunny.8 mph67%29.96 "Hg10 mi
8:55 am80 °FSunny.10 mph73%29.96 "Hg10 mi
8:35 am78 °FSunny.7 mph78%29.95 "Hg10 mi
8:15 am76 °FSunny.6 mph83%29.95 "Hg10 mi
7:55 am74 °FSunny.6 mph88%29.94 "Hg10 mi
7:15 am71 °FSunny.3 mph91%29.93 "Hg10 mi
6:55 am71 °FSunny.3 mph90%29.93 "Hg10 mi
6:35 am70 °FSunny.3 mph88%29.92 "Hg10 mi
6:15 am70 °FSunny.3 mph84%29.91 "Hg10 mi
5:55 am70 °FClear.5 mph80%29.90 "Hg10 mi
5:35 am70 °FClear.3 mph76%29.90 "Hg10 mi
5:15 am70 °FClear.3 mph76%29.89 "Hg10 mi
4:35 am73 °FClear.No wind63%29.88 "Hg10 mi
4:15 am73 °FClear.3 mph60%29.87 "Hg10 mi
3:55 am73 °FClear.No wind59%29.87 "Hg10 mi
3:35 am74 °FClear.No wind57%29.87 "Hg10 mi
3:15 am73 °FClear.3 mph58%29.88 "Hg10 mi
2:35 am74 °FClear.5 mph55%29.87 "Hg10 mi
2:15 am74 °FClear.3 mph55%29.87 "Hg10 mi
1:55 am74 °FClear.5 mph54%29.87 "Hg10 mi
1:15 am77 °FPassing clouds.13 mph51%29.88 "Hg10 mi
12:55 am78 °FPassing clouds.12 mph73%29.88 "Hg10 mi
12:35 am75 °FPassing clouds.No wind90%29.87 "Hg10 mi
12:15 am74 °FPassing clouds.No wind92%29.87 "Hg10 mi
11:55 pm
Thu, May 19
72 °FClear.No wind93%29.86 "Hg10 mi
11:35 pm75 °FClear.No wind90%29.86 "Hg10 mi
11:15 pm75 °FClear.No wind90%29.86 "Hg10 mi
10:55 pm75 °FClear.No wind87%29.85 "Hg10 mi
10:35 pm75 °FClear.No wind87%29.84 "Hg10 mi
10:15 pm76 °FClear.No wind86%29.84 "Hg10 mi
9:55 pm76 °FClear.No wind85%29.83 "Hg10 mi
9:35 pm78 °FClear.No wind83%29.82 "Hg10 mi
9:15 pm79 °FClear.No wind76%29.82 "Hg10 mi
8:55 pm80 °FClear.No wind75%29.81 "Hg10 mi
7:35 pm87 °FSunny.No wind57%29.78 "Hg10 mi
7:15 pm88 °FSunny.No wind51%29.78 "Hg10 mi
6:55 pm89 °FSunny.3 mph46%29.79 "Hg10 mi
6:35 pm90 °FSunny.5 mph45%29.79 "Hg10 mi
6:15 pm91 °FSunny.6 mph43%29.78 "Hg10 mi
5:55 pm90 °FSunny.7 mph42%29.78 "Hg10 mi
5:35 pm91 °FSunny.7 mph41%29.78 "Hg10 mi
5:15 pm91 °FSunny.6 mph41%29.78 "Hg10 mi
4:55 pm91 °FSunny.6 mph41%29.78 "Hg10 mi
4:35 pm91 °FScattered clouds.8 mph40%29.78 "Hg10 mi
4:15 pm92 °FScattered clouds.8 mph42%29.79 "Hg10 mi
3:55 pm91 °FScattered clouds.6 mph41%29.80 "Hg10 mi
3:35 pm91 °FScattered clouds.6 mph42%29.80 "Hg10 mi
2:55 pm90 °FSunny.13 mph42%29.81 "Hg10 mi
2:35 pm90 °FSunny.9 mph42%29.82 "Hg10 mi
2:15 pm89 °FSunny.13 mph44%29.82 "Hg10 mi
1:55 pm89 °FSunny.10 mph46%29.82 "Hg10 mi
1:35 pm87 °FSunny.6 mph50%29.83 "Hg10 mi
1:15 pm87 °FSunny.6 mph52%29.83 "Hg10 mi
12:55 pm86 °FSunny.7 mph55%29.84 "Hg10 mi
12:35 pm85 °FSunny.12 mph56%29.85 "Hg10 mi
12:15 pm84 °FSunny.7 mph57%29.86 "Hg10 mi
11:55 am83 °FSunny.9 mph58%29.86 "Hg10 mi
11:35 am83 °FSunny.9 mph61%29.86 "Hg10 mi
11:15 am82 °FSunny.10 mph61%29.86 "Hg10 mi
10:55 am81 °FSunny.10 mph64%29.86 "Hg10 mi
10:35 am80 °FSunny.8 mph66%29.86 "Hg10 mi
10:15 am80 °FSunny.7 mph68%29.86 "Hg10 mi
Weather by CustomWeather, © 2022

See weather overview